Airfield :
LOGIN :

Register | Disclaimer

   EN    FR    IT 

 










Legend :    VFR   Marginal VFR   IFR   Intensive IFR   Very Intensive IFR
Visi :
Ceiling :
>= 8 km
>= 3000ft
5 to 8 km
1000 to 3000 ft
1500m to 5 km
500 to 1000 ft
800 to 1500m
200 to 500 ft
< 800m
< 200 ft
Symbols :   Thunderstorms  Fog  Heavy snow  Heavy precipitations  Wind > 20 kt
SIGMETs :     Misc.  Thunderstorms  Icing  Turbulence  Mountain Waves  Volcanic Ashes







- Airport Elevation : 83 ft
- IATA code : LHR
- Download approach charts


EGLL - London Heathrow

CURRENT METAR :
  • 231720Z AUTO 22014KT 9999 BKN011 OVC023 13/10 Q1013 NOSIG

EXPIRED METARs :
  • 231650Z AUTO 22013G23KT 190V250 9999 SCT009 BKN014 OVC023 12/11 Q1013 NOSIG
  • 231620Z AUTO 22014KT 9999 BKN009 OVC024 12/10 Q1013 NOSIG
  • 231550Z AUTO 22012KT 9999 BKN013 OVC021 13/10 Q1013 TEMPO BKN020
  • 231520Z AUTO 22016KT 9999 BKN016 BKN026 13/10 Q1013 NOSIG
  • 231450Z AUTO 22016KT 9999 BKN017 OVC027 13/10 Q1013 NOSIG

TAF TAF EGLL
Valid from the 23 at 18:00 until the 25 at 00:00 UTC


231652Z 2318/2424 20010KT 9999 BKN012
PROB40
TEMPO 2318/2320 BKN020
BECMG 2320/2323 SCT025
BECMG 2400/2403 21015G25KT BKN012
BECMG 2403/2406 21022G35KT
TEMPO 2408/2413 7000 RA
PROB30
TEMPO 2409/2412 21032G45KT 3000 +RA BKN008
BECMG 2413/2415 SCT030
PROB30
TEMPO 2413/2418 7000 -SHRA BKN014
No reported NOTAMs for that airfield.



MET'MAP, your aeronautical weather chart ! - Copyright ORBIFLY December 2007 - Disclaimer

ORBIFLY MET'MAP TEAM :

Programming & Development : Alexandra Zaïnal
Concept & Development : Baudouin d'Aumeries
Co-Development & Prog : Marc-Olivier Méhu
Technical & hardware support : Manuel Goepfert

Contact : metmap@orbifly.com




SOURCES & CREDITS :

   NOAA